Time;durP1;ratioP1;P1;durP2;ratioP2;P2;SDS_P1;SDS_P2;PMS_P1;PMS_P2;Temp;Humidity;BMP_temperature;BMP_pressure;BME280_temperature;BME280_humidity;BME280_pressure;Samples;Min_cycle;Max_cycle;Signal;HPM_P1;HPM_P2
2023/10/23 00:00:06;;;;;;;8.30;2.60;;;15.80;97.90;;;;;;5032434;28;20022;-78
2023/10/23 00:02:32;;;;;;;10.25;2.88;;;15.80;97.90;;;;;;5032462;28;20433;-78
2023/10/23 00:05:01;;;;;;;8.55;2.50;;;15.80;97.90;;;;;;5032505;28;20022;-78
2023/10/23 00:07:42;;;;;;;11.80;2.30;;;15.70;98.00;;;;;;5032346;28;20029;-79
2023/10/23 00:10:11;;;;;;;7.05;2.47;;;15.70;98.00;;;;;;5032381;28;20064;-78
2023/10/23 00:12:49;;;;;;;4.25;1.90;;;15.70;98.00;;;;;;5031809;28;20401;-78
2023/10/23 00:15:21;;;;;;;10.65;2.55;;;15.70;98.00;;;;;;5032243;28;20080;-79
2023/10/23 00:17:53;;;;;;;10.30;2.17;;;15.60;98.00;;;;;;5032104;28;20026;-78
2023/10/23 00:20:19;;;;;;;9.07;2.20;;;15.60;97.90;;;;;;5032249;28;20393;-78
2023/10/23 00:23:00;;;;;;;8.75;1.90;;;15.60;97.90;;;;;;5031670;28;20037;-79
2023/10/23 00:25:46;;;;;;;6.53;1.50;;;15.50;97.90;;;;;;5032436;28;20396;-79
2023/10/23 00:28:53;;;;;;;7.32;2.00;;;15.50;98.10;;;;;;5032335;28;20465;-79
2023/10/23 00:31:19;;;;;;;10.43;1.92;;;15.50;98.20;;;;;;5030958;28;20037;-79
2023/10/23 00:33:45;;;;;;;6.97;1.60;;;15.50;98.20;;;;;;5044432;28;20098;-79
2023/10/23 00:36:11;;;;;;;7.13;1.77;;;15.50;98.20;;;;;;5055635;28;20063;-78
2023/10/23 00:38:36;;;;;;;7.57;2.58;;;15.40;98.20;;;;;;5055496;28;20021;-79
2023/10/23 00:41:02;;;;;;;5.30;1.40;;;15.40;98.30;;;;;;5055201;28;20056;-78
2023/10/23 00:43:28;;;;;;;8.32;1.80;;;15.50;98.30;;;;;;5055331;28;20040;-78
2023/10/23 00:45:59;;;;;;;7.45;1.50;;;15.50;98.40;;;;;;5055396;28;20033;-78
2023/10/23 00:48:40;;;;;;;8.07;1.40;;;15.40;98.40;;;;;;5055587;28;20029;-79
2023/10/23 00:51:23;;;;;;;4.28;1.40;;;15.50;98.40;;;;;;5055593;28;20045;-78
2023/10/23 00:54:04;;;;;;;5.35;1.20;;;15.50;98.40;;;;;;5055406;28;20444;-79
2023/10/23 00:56:34;;;;;;;4.60;1.98;;;15.40;98.40;;;;;;5055140;28;20078;-78
2023/10/23 00:59:03;;;;;;;6.47;1.50;;;15.40;98.40;;;;;;5053486;28;20064;-78
2023/10/23 01:01:33;;;;;;;5.55;1.77;;;15.40;98.50;;;;;;5052679;28;20033;-79
2023/10/23 01:04:18;;;;;;;6.93;1.20;;;15.40;98.50;;;;;;5052736;28;20055;-78
2023/10/23 01:06:59;;;;;;;5.50;0.98;;;15.40;98.50;;;;;;5054795;28;20397;-79
2023/10/23 01:09:28;;;;;;;7.45;1.60;;;15.40;98.60;;;;;;5055048;28;20040;-79
2023/10/23 01:11:57;;;;;;;7.10;1.42;;;15.40;98.50;;;;;;5055069;28;20377;-78
2023/10/23 01:14:38;;;;;;;5.93;1.40;;;15.50;98.50;;;;;;5054826;28;20033;-79
2023/10/23 01:17:07;;;;;;;6.85;1.30;;;15.50;98.40;;;;;;5054870;28;20021;-78
2023/10/23 01:19:45;;;;;;;6.78;1.45;;;15.50;98.40;;;;;;5054765;28;20475;-78
2023/10/23 01:22:11;;;;;;;5.10;1.67;;;15.50;98.40;;;;;;5053640;28;20025;-76
2023/10/23 01:24:40;;;;;;;5.07;1.20;;;15.50;98.40;;;;;;5054434;28;20083;-79
2023/10/23 01:27:06;;;;;;;5.60;1.50;;;15.40;98.40;;;;;;5054721;28;20070;-78
2023/10/23 01:29:36;;;;;;;6.93;1.25;;;15.40;98.50;;;;;;5054776;28;20032;-79
2023/10/23 01:32:05;;;;;;;3.63;1.23;;;15.50;98.60;;;;;;5054804;28;20431;-78
2023/10/23 01:34:31;;;;;;;5.85;1.52;;;15.50;98.50;;;;;;5073004;28;20052;-78
2023/10/23 01:37:12;;;;;;;7.43;1.50;;;15.50;98.80;;;;;;5074460;28;20029;-77
2023/10/23 01:39:48;;;;;;;2.78;1.05;;;15.40;98.50;;;;;;5074311;28;20028;-78
2023/10/23 01:42:28;;;;;;;5.88;1.40;;;15.40;98.70;;;;;;5074356;28;20427;-79
2023/10/23 01:45:23;;;;;;;3.33;1.13;;;15.50;98.70;;;;;;5073539;28;20017;-79
2023/10/23 01:47:57;;;;;;;6.13;1.00;;;15.40;98.80;;;;;;5074045;28;20036;-78
2023/10/23 01:50:38;;;;;;;7.65;1.50;;;15.40;98.80;;;;;;5074045;28;20032;-78
2023/10/23 01:56:20;;;;;;;4.80;1.20;;;15.50;98.90;;;;;;5050377;28;20476;-78
2023/10/23 01:59:01;;;;;;;5.07;1.25;;;15.50;98.90;;;;;;5073807;28;20376;-78
2023/10/23 02:01:27;;;;;;;6.82;1.20;;;15.50;98.90;;;;;;5073935;28;20380;-79
2023/10/23 02:04:03;;;;;;;10.40;1.20;;;15.50;98.90;;;;;;5073977;28;20033;-78
2023/10/23 02:06:40;;;;;;;4.18;1.20;;;15.50;98.90;;;;;;5074266;28;20024;-78
2023/10/23 02:09:19;;;;;;;9.02;1.35;;;15.60;99.00;;;;;;5089250;28;20455;-79
2023/10/23 02:11:48;;;;;;;6.97;1.40;;;15.50;99.00;;;;;;5073513;28;20388;-78
2023/10/23 02:14:24;;;;;;;5.35;1.15;;;15.50;99.00;;;;;;5074016;28;20078;-77
2023/10/23 02:16:53;;;;;;;6.10;1.20;;;15.60;99.00;;;;;;5073833;28;20036;-78
2023/10/23 02:19:19;;;;;;;6.38;1.50;;;15.60;98.90;;;;;;5073749;28;20036;-79
2023/10/23 02:25:01;;;;;;;8.65;1.33;;;15.50;98.80;;;;;;5068576;28;20167;-79
2023/10/23 02:27:30;;;;;;;5.18;1.02;;;15.60;98.80;;;;;;5073744;28;20108;-78
2023/10/23 02:30:08;;;;;;;8.45;1.73;;;15.60;98.90;;;;;;5073504;28;20366;-79
2023/10/23 02:32:40;;;;;;;12.00;1.70;;;15.60;98.90;;;;;;5070892;28;20040;-78
2023/10/23 02:35:06;;;;;;;5.60;1.27;;;15.60;98.90;;;;;;5073353;28;20037;-78
2023/10/23 02:37:36;;;;;;;6.65;1.17;;;15.60;98.80;;;;;;5073266;28;20423;-78
2023/10/23 02:40:08;;;;;;;6.15;1.10;;;15.60;98.80;;;;;;5073499;28;20025;-78
2023/10/23 02:42:36;;;;;;;;;;;15.60;98.90;;;;;;5073508;28;20051;-79
2023/10/23 02:45:20;;;;;;;7.20;1.40;;;15.60;98.90;;;;;;5073589;28;20316;-78
2023/10/23 02:47:53;;;;;;;14.55;1.65;;;15.60;98.80;;;;;;5073340;28;20017;-77
2023/10/23 02:50:20;;;;;;;7.55;1.40;;;15.60;98.80;;;;;;5073281;28;20020;-79
2023/10/23 02:52:49;;;;;;;6.72;1.40;;;15.60;98.80;;;;;;5073088;28;20025;-79
2023/10/23 02:55:21;;;;;;;8.63;2.03;;;15.50;98.70;;;;;;5088467;28;20157;-78
2023/10/23 02:57:50;;;;;;;4.32;1.33;;;15.50;98.90;;;;;;5072816;28;20108;-78
2023/10/23 03:00:35;;;;;;;6.25;1.65;;;15.60;99.00;;;;;;5072696;28;20044;-78
2023/10/23 03:03:01;;;;;;;10.95;1.38;;;15.50;98.90;;;;;;5072910;28;20021;-78
2023/10/23 03:05:36;;;;;;;9.88;1.48;;;15.50;98.90;;;;;;5073035;28;20032;-77
2023/10/23 03:08:08;;;;;;;8.10;1.27;;;15.50;98.80;;;;;;5073026;28;20028;-78
2023/10/23 03:10:43;;;;;;;7.90;1.23;;;15.50;98.70;;;;;;5055084;28;20020;-78
2023/10/23 03:13:15;;;;;;;5.88;1.58;;;15.50;98.70;;;;;;5072946;28;20048;-78
2023/10/23 03:15:41;;;;;;;4.38;1.02;;;15.50;98.60;;;;;;5072868;28;20467;-78
2023/10/23 03:18:11;;;;;;;5.03;1.27;;;15.50;98.50;;;;;;5073100;28;20471;-78
2023/10/23 03:20:46;;;;;;;3.58;1.40;;;15.40;98.40;;;;;;5073201;28;20091;-78
2023/10/23 03:23:21;;;;;;;6.72;1.90;;;15.40;98.50;;;;;;5072709;28;20094;-78
2023/10/23 03:25:53;;;;;;;3.33;1.55;;;15.40;98.50;;;;;;5072704;28;20042;-78
2023/10/23 03:28:19;;;;;;;4.15;1.20;;;15.30;98.50;;;;;;5072270;28;20388;-78
2023/10/23 03:30:48;;;;;;;6.68;1.38;;;15.30;98.50;;;;;;5072528;28;20025;-78
2023/10/23 03:33:28;;;;;;;5.70;1.40;;;15.30;98.40;;;;;;5051041;28;20052;-78
2023/10/23 03:36:00;;;;;;;8.88;1.60;;;15.30;98.40;;;;;;5052684;28;20083;-78
2023/10/23 03:38:26;;;;;;;8.00;1.70;;;15.30;98.50;;;;;;5052613;28;20021;-77
2023/10/23 03:41:07;;;;;;;5.72;1.30;;;15.30;98.50;;;;;;5052156;28;20029;-78
2023/10/23 03:43:42;;;;;;;6.57;1.20;;;15.20;98.60;;;;;;5052204;28;20405;-79
2023/10/23 03:46:08;;;;;;;4.78;1.27;;;15.20;98.60;;;;;;5052261;28;20025;-78
2023/10/23 03:48:40;;;;;;;7.97;1.45;;;15.20;98.70;;;;;;5050831;28;20039;-78
2023/10/23 03:51:06;;;;;;;9.85;1.48;;;15.20;98.70;;;;;;5052498;28;20017;-78
2023/10/23 03:53:34;;;;;;;5.85;1.25;;;15.20;98.60;;;;;;5051876;28;20044;-78
2023/10/23 03:56:06;;;;;;;8.13;1.52;;;15.20;98.50;;;;;;5052420;28;20062;-78
2023/10/23 03:58:47;;;;;;;8.75;1.58;;;15.20;98.50;;;;;;5052556;28;20033;-78
2023/10/23 04:01:13;;;;;;;8.05;1.58;;;15.10;98.50;;;;;;5052157;28;20025;-78
2023/10/23 04:03:39;;;;;;;7.72;1.63;;;15.10;98.50;;;;;;5052087;28;20048;-78
2023/10/23 04:06:06;;;;;;;12.23;1.77;;;15.10;98.50;;;;;;5052562;28;20024;-79
2023/10/23 04:08:32;;;;;;;10.25;1.35;;;15.10;98.50;;;;;;5052976;28;20025;-78
2023/10/23 04:11:01;;;;;;;6.35;1.55;;;15.00;98.40;;;;;;5056422;28;20452;-78
2023/10/23 04:13:27;;;;;;;8.15;1.48;;;15.00;98.50;;;;;;5056200;28;20128;-78
2023/10/23 04:15:58;;;;;;;8.23;1.10;;;15.00;98.50;;;;;;5056236;28;20507;-78
2023/10/23 04:18:25;;;;;;;5.07;1.70;;;15.00;98.50;;;;;;5056420;28;20421;-78
2023/10/23 04:21:04;;;;;;;7.22;1.65;;;14.90;98.80;;;;;;5056428;28;20384;-78
2023/10/23 04:23:30;;;;;;;15.30;1.67;;;14.90;98.60;;;;;;5055993;28;20051;-78
2023/10/23 04:26:08;;;;;;;5.25;1.33;;;15.00;98.60;;;;;;5055895;28;20025;-78
2023/10/23 04:28:38;;;;;;;4.13;1.33;;;14.90;98.70;;;;;;5055568;28;20025;-78
2023/10/23 04:31:08;;;;;;;6.57;1.27;;;14.90;98.70;;;;;;5055558;28;20017;-79
2023/10/23 04:33:46;;;;;;;11.80;1.55;;;14.90;98.60;;;;;;5059596;28;20415;-78
2023/10/23 04:36:18;;;;;;;8.35;1.80;;;14.90;98.70;;;;;;5076007;28;20032;-78
2023/10/23 04:38:50;;;;;;;7.53;1.50;;;14.90;98.80;;;;;;5075805;28;20451;-78
2023/10/23 04:41:18;;;;;;;9.32;1.20;;;14.80;98.70;;;;;;5075762;28;20052;-78
2023/10/23 04:43:53;;;;;;;5.78;1.40;;;14.80;98.70;;;;;;5075841;28;20385;-79
2023/10/23 04:46:20;;;;;;;6.57;1.40;;;14.90;98.70;;;;;;5075756;28;20025;-78
2023/10/23 04:48:46;;;;;;;8.55;1.60;;;14.80;98.70;;;;;;5075088;28;20040;-79
2023/10/23 04:51:21;;;;;;;5.45;1.23;;;14.80;98.70;;;;;;5075507;28;20146;-78
2023/10/23 04:56:45;;;;;;;3.45;1.08;;;14.80;98.70;;;;;;5044297;28;20041;-79
2023/10/23 04:59:14;;;;;;;9.68;1.65;;;14.80;98.80;;;;;;5075381;28;20416;-77
2023/10/23 05:01:43;;;;;;;7.13;1.10;;;14.80;98.80;;;;;;5085380;28;20508;-78
2023/10/23 05:04:09;;;;;;;7.43;1.27;;;14.80;98.80;;;;;;5074780;28;20064;-78
2023/10/23 05:06:44;;;;;;;14.27;1.85;;;14.70;98.80;;;;;;5075048;28;20028;-78
2023/10/23 05:09:13;;;;;;;5.20;1.25;;;14.70;98.80;;;;;;5074954;28;20025;-78
2023/10/23 05:11:42;;;;;;;7.50;1.92;;;14.80;98.90;;;;;;5056795;28;20028;-78
2023/10/23 05:14:08;;;;;;;6.85;1.73;;;14.80;98.90;;;;;;5075221;28;20064;-78
2023/10/23 05:16:34;;;;;;;6.88;1.40;;;14.80;98.70;;;;;;5074723;28;20082;-78
2023/10/23 05:19:38;;;;;;;10.80;2.17;;;14.70;98.60;;;;;;5075148;28;20028;-77
2023/10/23 05:22:04;;;;;;;8.27;1.60;;;14.80;98.70;;;;;;5057286;28;20035;-78
2023/10/23 05:24:30;;;;;;;9.18;1.70;;;14.70;98.70;;;;;;5074679;28;20021;-77
2023/10/23 05:26:56;;;;;;;7.18;1.70;;;14.70;98.70;;;;;;5074719;28;20021;-77
2023/10/23 05:29:26;;;;;;;11.68;1.88;;;14.70;98.80;;;;;;5074858;28;20044;-77
2023/10/23 05:32:01;;;;;;;5.22;1.70;;;14.60;98.70;;;;;;5074725;28;20030;-77
2023/10/23 05:34:30;;;;;;;7.80;1.50;;;14.60;98.70;;;;;;5074595;28;20048;-78
2023/10/23 05:36:56;;;;;;;8.50;1.75;;;14.60;98.80;;;;;;5074750;28;20358;-78
2023/10/23 05:39:22;;;;;;;4.88;1.60;;;14.50;98.90;;;;;;5074648;28;20035;-79
2023/10/23 05:42:03;;;;;;;5.65;1.80;;;14.50;99.00;;;;;;5056677;28;20381;-78
2023/10/23 05:44:35;;;;;;;6.17;1.50;;;14.50;99.10;;;;;;5074623;28;20444;-78
2023/10/23 05:47:01;;;;;;;7.00;1.38;;;14.60;99.20;;;;;;5071613;28;20067;-72
2023/10/23 05:49:28;;;;;;;6.32;1.45;;;14.60;99.20;;;;;;5054409;28;20036;-72
2023/10/23 05:51:54;;;;;;;5.97;1.52;;;14.60;99.30;;;;;;5054296;28;20033;-71
2023/10/23 05:54:19;;;;;;;4.57;1.60;;;14.50;99.40;;;;;;5054118;28;20491;-72
2023/10/23 05:56:45;;;;;;;5.93;1.38;;;14.60;99.40;;;;;;5054261;28;20036;-72
2023/10/23 05:59:11;;;;;;;6.45;1.77;;;14.50;99.50;;;;;;5054067;28;20075;-74
2023/10/23 06:01:37;;;;;;;6.63;1.77;;;14.50;99.50;;;;;;5069306;28;20033;-75
2023/10/23 06:04:04;;;;;;;9.30;1.90;;;14.60;99.70;;;;;;5054219;28;20052;-75
2023/10/23 06:06:30;;;;;;;8.27;2.63;;;14.60;99.70;;;;;;5053923;28;20029;-75
2023/10/23 06:08:56;;;;;;;8.82;1.70;;;14.60;99.60;;;;;;5054300;28;20365;-75
2023/10/23 06:11:23;;;;;;;9.38;2.28;;;14.70;99.50;;;;;;5054124;28;20453;-75
2023/10/23 06:13:49;;;;;;;6.07;1.90;;;14.70;99.50;;;;;;5053616;28;20031;-75
2023/10/23 06:16:18;;;;;;;5.55;2.00;;;14.80;99.60;;;;;;5053830;28;20029;-76
2023/10/23 06:18:44;;;;;;;5.78;1.85;;;14.70;99.60;;;;;;5054255;28;20028;-75
2023/10/23 06:21:10;;;;;;;11.43;2.65;;;14.80;99.60;;;;;;5062460;28;20077;-75
2023/10/23 06:23:39;;;;;;;16.73;3.80;;;14.80;99.70;;;;;;5073381;28;20044;-75
2023/10/23 06:26:08;;;;;;;15.45;4.20;;;14.80;99.70;;;;;;5073010;28;20051;-75
2023/10/23 06:28:35;;;;;;;11.55;3.72;;;14.80;99.70;;;;;;5073409;28;20381;-75
2023/10/23 06:31:11;;;;;;;20.90;4.15;;;14.90;99.70;;;;;;5073580;28;20020;-75
2023/10/23 06:33:38;;;;;;;12.73;4.07;;;14.90;99.80;;;;;;5073264;28;20052;-75
2023/10/23 06:36:07;;;;;;;10.73;3.47;;;14.90;99.80;;;;;;5073270;28;20104;-75
2023/10/23 06:38:36;;;;;;;7.43;2.22;;;14.90;99.90;;;;;;5073788;28;20914;-75
2023/10/23 06:41:06;;;;;;;12.02;2.30;;;14.90;99.90;;;;;;5073815;28;20016;-75
2023/10/23 06:43:33;;;;;;;9.27;2.65;;;14.90;99.90;;;;;;5073318;28;20100;-75
2023/10/23 06:45:59;;;;;;;10.90;2.05;;;15.00;99.90;;;;;;5073478;28;20518;-75
2023/10/23 06:48:24;;;;;;;12.27;3.03;;;15.00;99.90;;;;;;5073452;28;20032;-77
2023/10/23 06:50:51;;;;;;;9.35;2.25;;;15.00;99.90;;;;;;5073278;28;20099;-76
2023/10/23 06:53:17;;;;;;;7.97;2.42;;;15.00;99.90;;;;;;5073189;28;20432;-76
2023/10/23 06:55:53;;;;;;;9.13;2.20;;;15.00;99.90;;;;;;5072920;28;20039;-76
2023/10/23 06:58:19;;;;;;;5.80;2.03;;;15.00;99.90;;;;;;5071805;28;20063;-76
2023/10/23 07:00:45;;;;;;;7.75;2.13;;;15.10;99.90;;;;;;5070996;28;20024;-76
2023/10/23 07:03:11;;;;;;;8.68;2.00;;;15.10;99.90;;;;;;5071322;28;20036;-76
2023/10/23 07:05:37;;;;;;;9.07;1.85;;;15.00;99.90;;;;;;5070399;28;20024;-76
2023/10/23 07:08:03;;;;;;;8.13;2.13;;;15.10;99.90;;;;;;5071401;28;20060;-76
2023/10/23 07:10:35;;;;;;;6.75;1.92;;;15.10;99.90;;;;;;5071167;28;20031;-76
2023/10/23 07:13:02;;;;;;;4.25;1.77;;;15.10;99.90;;;;;;5071889;28;20518;-76
2023/10/23 07:15:28;;;;;;;6.35;1.90;;;15.20;99.90;;;;;;5071772;28;20542;-76
2023/10/23 07:17:55;;;;;;;7.40;1.85;;;15.20;99.90;;;;;;5073251;28;20047;-76
2023/10/23 07:20:21;;;;;;;9.55;2.38;;;15.20;99.90;;;;;;5073157;28;20032;-76
2023/10/23 07:22:46;;;;;;;9.43;2.30;;;15.20;99.90;;;;;;5073037;28;20028;-76
2023/10/23 07:25:12;;;;;;;13.82;2.47;;;15.30;99.90;;;;;;5072900;28;20020;-77
2023/10/23 07:27:41;;;;;;;6.32;1.98;;;15.30;99.90;;;;;;5073278;28;20021;-76
2023/10/23 07:30:07;;;;;;;10.57;2.17;;;15.30;99.90;;;;;;5072348;28;20052;-75
2023/10/23 07:32:35;;;;;;;7.45;2.20;;;15.30;99.90;;;;;;5072104;28;20119;-80
2023/10/23 07:35:03;;;;;;;5.70;1.67;;;15.40;99.90;;;;;;5072556;28;20048;-76
2023/10/23 07:37:29;;;;;;;8.05;1.92;;;15.40;99.90;;;;;;5072174;28;20028;-77
2023/10/23 07:39:57;;;;;;;11.25;2.63;;;15.40;99.90;;;;;;5072363;28;20158;-76
2023/10/23 07:42:22;;;;;;;9.52;1.80;;;15.50;99.90;;;;;;5072392;28;20074;-76
2023/10/23 07:44:48;;;;;;;7.07;1.77;;;15.50;99.90;;;;;;5075584;28;20074;-77
2023/10/23 07:47:14;;;;;;;8.38;1.52;;;15.50;99.90;;;;;;5059092;28;20086;-77
2023/10/23 07:49:40;;;;;;;5.32;1.52;;;15.60;99.90;;;;;;5058365;28;20162;-76
2023/10/23 07:52:06;;;;;;;10.75;2.00;;;15.60;99.90;;;;;;5075413;28;20025;-75
2023/10/23 07:54:31;;;;;;;4.90;1.50;;;15.60;99.90;;;;;;5077056;28;20524;-75
2023/10/23 07:56:58;;;;;;;10.77;1.48;;;15.70;99.90;;;;;;5075975;28;20020;-76
2023/10/23 07:59:25;;;;;;;6.82;1.77;;;15.70;99.80;;;;;;5076144;28;20085;-77
2023/10/23 08:01:52;;;;;;;6.68;1.40;;;15.70;99.70;;;;;;5076555;28;20464;-76
2023/10/23 08:04:18;;;;;;;5.68;1.73;;;15.80;99.70;;;;;;5075493;28;20032;-75
2023/10/23 08:06:44;;;;;;;4.95;1.40;;;15.80;99.60;;;;;;5075836;28;20021;-74
2023/10/23 08:09:11;;;;;;;5.40;1.80;;;15.90;99.70;;;;;;5075960;28;20549;-76
2023/10/23 08:11:37;;;;;;;4.13;1.45;;;15.90;99.80;;;;;;5075929;28;20021;-74
2023/10/23 08:14:04;;;;;;;9.52;2.25;;;16.00;99.80;;;;;;5075410;28;20029;-75
2023/10/23 08:16:30;;;;;;;4.50;1.48;;;16.00;99.70;;;;;;5075437;28;20020;-75
2023/10/23 08:18:57;;;;;;;8.85;2.20;;;16.00;99.60;;;;;;5076104;28;20025;-75
2023/10/23 08:21:26;;;;;;;5.93;1.50;;;16.10;99.60;;;;;;5076463;28;20032;-77
2023/10/23 08:23:58;;;;;;;8.30;1.50;;;16.10;99.60;;;;;;5076365;28;20910;-77
2023/10/23 08:26:24;;;;;;;;;;;16.20;99.60;;;;;;5076730;28;20108;-77
2023/10/23 08:28:52;;;;;;;5.10;1.70;;;16.30;99.40;;;;;;5076411;28;19989;-76
2023/10/23 08:31:18;;;;;;;10.13;1.85;;;16.30;99.30;;;;;;5076343;28;20061;-76
2023/10/23 08:33:44;;;;;;;9.70;1.63;;;16.40;99.40;;;;;;5075742;28;20055;-77
2023/10/23 08:36:10;;;;;;;8.73;1.20;;;16.40;99.30;;;;;;5076232;28;20103;-76
2023/10/23 08:38:36;;;;;;;10.27;1.98;;;16.50;99.20;;;;;;5075854;28;20029;-76
2023/10/23 08:41:03;;;;;;;10.02;1.65;;;16.60;99.20;;;;;;5076193;28;20028;-77
2023/10/23 08:43:29;;;;;;;7.95;1.70;;;16.60;99.20;;;;;;5075986;28;20074;-76
2023/10/23 08:46:00;;;;;;;13.27;2.05;;;16.60;99.20;;;;;;5075722;28;20025;-76
2023/10/23 08:48:27;;;;;;;8.52;2.00;;;16.70;99.40;;;;;;5075593;28;20024;-77
2023/10/23 08:50:58;;;;;;;8.13;2.15;;;16.70;99.40;;;;;;5075716;28;20032;-76
2023/10/23 08:53:33;;;;;;;9.50;2.20;;;16.80;99.40;;;;;;5075868;28;20036;-76
2023/10/23 08:56:04;;;;;;;8.60;2.20;;;16.80;99.40;;;;;;5075354;28;20020;-77
2023/10/23 08:58:33;;;;;;;8.43;1.40;;;16.90;99.30;;;;;;5075680;28;20107;-76
2023/10/23 09:00:59;;;;;;;8.32;1.50;;;16.90;99.20;;;;;;5075654;28;20473;-75
2023/10/23 09:03:26;;;;;;;7.65;1.33;;;17.00;99.10;;;;;;5075617;28;20104;-75
2023/10/23 09:05:52;;;;;;;8.45;1.98;;;17.10;99.10;;;;;;5075547;28;20127;-74
2023/10/23 09:08:18;;;;;;;6.53;1.40;;;17.10;99.00;;;;;;5075191;28;20520;-76
2023/10/23 09:11:13;;;;;;;7.93;1.30;;;17.20;99.00;;;;;;5075557;28;20480;-75
2023/10/23 09:13:41;;;;;;;11.43;1.60;;;17.20;98.90;;;;;;5066355;28;20090;-75
2023/10/23 09:16:11;;;;;;;6.70;1.33;;;17.20;98.60;;;;;;5057352;28;20063;-75
2023/10/23 09:18:51;;;;;;;7.28;1.90;;;17.20;98.70;;;;;;5075476;28;20024;-75
2023/10/23 09:21:17;;;;;;;10.18;1.42;;;17.20;98.60;;;;;;5075131;28;20035;-75
2023/10/23 09:23:54;;;;;;;6.53;1.83;;;17.20;98.60;;;;;;5075240;28;20024;-75
2023/10/23 09:26:24;;;;;;;12.73;1.42;;;17.30;98.60;;;;;;5075034;28;20086;-75
2023/10/23 09:28:52;;;;;;;7.28;1.05;;;17.30;98.50;;;;;;5075053;28;20029;-76
2023/10/23 09:31:19;;;;;;;7.70;1.10;;;17.30;98.60;;;;;;5075200;28;20040;-76
2023/10/23 09:33:47;;;;;;;8.23;1.65;;;17.40;98.60;;;;;;5075021;28;20055;-75
2023/10/23 09:36:14;;;;;;;5.65;1.30;;;17.30;98.40;;;;;;5074977;28;20043;-75
2023/10/23 09:39:02;;;;;;;7.50;1.75;;;17.40;98.40;;;;;;5075227;28;20043;-75
2023/10/23 09:41:29;;;;;;;6.53;1.30;;;17.40;98.50;;;;;;5074978;28;20118;-75
2023/10/23 09:44:00;;;;;;;9.77;2.15;;;17.50;98.70;;;;;;5075061;28;20027;-75
2023/10/23 09:46:29;;;;;;;7.60;1.55;;;17.50;98.90;;;;;;5074868;28;20408;-75
2023/10/23 09:49:04;;;;;;;6.28;1.35;;;17.60;98.80;;;;;;5074737;28;20033;-76
2023/10/23 09:51:39;;;;;;;9.00;1.65;;;17.70;98.80;;;;;;5074724;28;20103;-74
2023/10/23 09:54:17;;;;;;;9.00;2.10;;;17.80;98.60;;;;;;5074663;28;20381;-76
2023/10/23 09:56:53;;;;;;;6.35;1.88;;;17.90;98.50;;;;;;5074596;28;20044;-75
2023/10/23 09:59:29;;;;;;;5.35;1.55;;;17.90;98.50;;;;;;5074468;28;20060;-75
2023/10/23 10:01:59;;;;;;;4.47;1.52;;;18.00;98.40;;;;;;5074294;28;20021;-75
2023/10/23 10:04:29;;;;;;;5.93;1.40;;;18.10;98.50;;;;;;5074274;28;20021;-76
2023/10/23 10:07:09;;;;;;;4.93;1.50;;;18.20;98.60;;;;;;5073940;28;20372;-76
2023/10/23 10:09:34;;;;;;;6.30;1.13;;;18.30;98.70;;;;;;5074423;28;20074;-76
2023/10/23 10:12:04;;;;;;;4.47;1.40;;;18.30;99.10;;;;;;5074144;28;20480;-76
2023/10/23 10:14:31;;;;;;;8.35;1.15;;;18.40;98.80;;;;;;5074103;28;20062;-76
2023/10/23 10:16:59;;;;;;;6.10;1.17;;;18.40;98.50;;;;;;5074362;28;20078;-76
2023/10/23 10:19:26;;;;;;;5.97;1.23;;;18.40;98.90;;;;;;5073997;28;20052;-76
2023/10/23 10:22:00;;;;;;;5.00;1.10;;;18.40;99.10;;;;;;5074156;28;20383;-77
2023/10/23 10:24:31;;;;;;;13.80;2.60;;;18.50;98.90;;;;;;5074217;28;20098;-76
2023/10/23 10:26:59;;;;;;;18.83;3.13;;;18.50;98.70;;;;;;5073767;28;20025;-75
2023/10/23 10:29:28;;;;;;;18.40;3.03;;;18.60;98.80;;;;;;5073904;28;20024;-77
2023/10/23 10:32:05;;;;;;;13.75;2.58;;;18.70;99.20;;;;;;5073984;28;20119;-76
2023/10/23 10:34:57;;;;;;;11.15;2.53;;;18.80;99.40;;;;;;5074083;28;20052;-76
2023/10/23 10:37:29;;;;;;;8.70;2.42;;;18.80;99.30;;;;;;5073598;28;20124;-76
2023/10/23 10:40:00;;;;;;;11.23;2.20;;;18.90;99.20;;;;;;5073921;28;20112;-77
2023/10/23 10:42:30;;;;;;;16.05;2.47;;;19.00;99.10;;;;;;5073752;28;20031;-76
2023/10/23 10:45:10;;;;;;;12.65;2.20;;;19.00;99.20;;;;;;5073786;28;20052;-77
2023/10/23 10:47:36;;;;;;;10.43;1.60;;;19.10;99.40;;;;;;5073763;28;20108;-77
2023/10/23 10:50:04;;;;;;;9.98;1.45;;;19.20;99.20;;;;;;5073317;28;20361;-75
2023/10/23 10:52:33;;;;;;;8.80;1.90;;;19.20;99.10;;;;;;5055381;28;20052;-76
2023/10/23 10:55:11;;;;;;;13.00;2.20;;;19.20;99.00;;;;;;5073700;28;20067;-77
2023/10/23 10:57:43;;;;;;;8.48;2.22;;;19.30;98.80;;;;;;5073774;28;20601;-75
2023/10/23 11:00:09;;;;;;;7.78;2.30;;;19.40;98.80;;;;;;5073288;28;20412;-75
2023/10/23 11:02:36;;;;;;;7.15;1.98;;;19.40;98.70;;;;;;5073430;28;20585;-76
2023/10/23 11:05:09;;;;;;;7.55;1.63;;;19.40;98.70;;;;;;5073540;28;20024;-77
2023/10/23 11:07:35;;;;;;;6.60;1.70;;;19.40;98.70;;;;;;5073640;28;20451;-77
2023/10/23 11:10:02;;;;;;;13.32;1.77;;;19.50;98.70;;;;;;5073294;28;20039;-77
2023/10/23 11:12:29;;;;;;;5.60;1.45;;;19.50;98.50;;;;;;5073223;28;20028;-77
2023/10/23 11:14:55;;;;;;;11.48;1.95;;;19.60;98.40;;;;;;5073068;28;20369;-77
2023/10/23 11:17:20;;;;;;;9.68;1.60;;;19.60;98.50;;;;;;5073294;28;20526;-76
2023/10/23 11:19:46;;;;;;;10.20;2.38;;;19.60;98.50;;;;;;5073486;28;20531;-77
2023/10/23 11:22:14;;;;;;;12.05;2.10;;;19.60;98.30;;;;;;5073062;28;20095;-76
2023/10/23 11:24:41;;;;;;;12.15;1.70;;;19.70;98.40;;;;;;5073039;28;20028;-78
2023/10/23 11:27:08;;;;;;;7.90;1.60;;;19.70;98.40;;;;;;5073284;28;20027;-77
2023/10/23 11:29:43;;;;;;;8.07;1.38;;;19.80;98.20;;;;;;5072969;28;20046;-77
2023/10/23 11:32:11;;;;;;;10.77;1.83;;;19.80;98.30;;;;;;5072896;28;20043;-77
2023/10/23 11:34:37;;;;;;;11.43;2.00;;;19.90;98.40;;;;;;5072667;28;20410;-77
2023/10/23 11:37:04;;;;;;;7.75;1.33;;;19.90;98.10;;;;;;5073301;28;20032;-75
2023/10/23 11:39:31;;;;;;;5.38;1.45;;;20.00;98.10;;;;;;5073028;28;20029;-76
2023/10/23 11:41:59;;;;;;;7.28;1.40;;;20.10;97.70;;;;;;5072860;28;20389;-78
2023/10/23 11:44:26;;;;;;;8.25;1.42;;;20.10;97.50;;;;;;5073185;28;20040;-78
2023/10/23 11:46:57;;;;;;;5.68;1.50;;;20.10;97.30;;;;;;5073066;28;20035;-76
2023/10/23 11:49:24;;;;;;;8.95;1.30;;;20.20;97.30;;;;;;5072902;28;20051;-77
2023/10/23 11:51:51;;;;;;;7.10;1.90;;;20.30;97.10;;;;;;5071528;28;20427;-75
2023/10/23 11:54:17;;;;;;;5.90;1.17;;;20.30;97.00;;;;;;5069934;28;20123;-77
2023/10/23 11:56:44;;;;;;;8.38;1.40;;;20.40;96.90;;;;;;5070474;28;20070;-77
2023/10/23 11:59:20;;;;;;;7.45;1.30;;;20.40;96.50;;;;;;5073082;28;20039;-76
2023/10/23 12:01:46;;;;;;;9.15;1.77;;;20.40;96.20;;;;;;5072713;28;20025;-76
2023/10/23 12:04:13;;;;;;;8.50;1.50;;;20.50;96.30;;;;;;5072799;28;20062;-77
2023/10/23 12:06:40;;;;;;;7.38;1.50;;;20.50;96.00;;;;;;5072544;28;20416;-77
2023/10/23 12:09:07;;;;;;;6.88;1.38;;;20.50;95.90;;;;;;5072429;28;20082;-76
2023/10/23 12:11:34;;;;;;;10.57;1.55;;;20.60;96.10;;;;;;5072390;28;20028;-77
2023/10/23 12:14:02;;;;;;;9.98;1.80;;;20.60;95.40;;;;;;5072546;28;20396;-78
2023/10/23 12:16:30;;;;;;;9.23;1.20;;;20.70;95.30;;;;;;5072638;28;20020;-77
2023/10/23 12:19:00;;;;;;;9.95;1.50;;;20.70;93.80;;;;;;5072660;28;20017;-78
2023/10/23 12:21:26;;;;;;;7.45;2.05;;;20.80;92.90;;;;;;5072837;28;20056;-78
2023/10/23 12:23:53;;;;;;;7.30;1.52;;;20.80;92.70;;;;;;5072549;28;20033;-79
2023/10/23 12:26:19;;;;;;;3.67;1.20;;;20.80;92.60;;;;;;5072715;28;20025;-78
2023/10/23 12:28:45;;;;;;;9.30;1.70;;;20.80;92.90;;;;;;5072643;28;20020;-77
2023/10/23 12:31:11;;;;;;;6.05;1.80;;;20.80;93.30;;;;;;5075710;28;20468;-78
2023/10/23 12:33:37;;;;;;;4.28;1.05;;;20.80;93.50;;;;;;5075962;28;20056;-78
2023/10/23 12:36:04;;;;;;;5.28;1.23;;;20.80;93.50;;;;;;5076218;28;20145;-78
2023/10/23 12:38:34;;;;;;;5.30;1.42;;;20.80;93.90;;;;;;5076256;28;20380;-78
2023/10/23 12:41:00;;;;;;;7.38;1.65;;;20.80;92.40;;;;;;5076106;28;20028;-77
2023/10/23 12:43:26;;;;;;;9.38;1.50;;;20.80;92.00;;;;;;5076192;28;20035;-78
2023/10/23 12:45:52;;;;;;;4.82;1.27;;;20.80;92.00;;;;;;5058122;28;20362;-78
2023/10/23 12:48:18;;;;;;;8.48;1.45;;;20.80;91.20;;;;;;5075941;28;20078;-77
2023/10/23 12:50:44;;;;;;;8.27;1.50;;;20.70;91.10;;;;;;5075625;28;20369;-78
2023/10/23 12:53:11;;;;;;;8.00;1.25;;;20.60;91.70;;;;;;5075958;28;20097;-77
2023/10/23 12:55:37;;;;;;;5.85;1.15;;;20.60;92.10;;;;;;5075865;28;20439;-77
2023/10/23 12:58:07;;;;;;;10.73;1.30;;;20.60;92.50;;;;;;5075714;28;20016;-78
2023/10/23 13:00:33;;;;;;;6.30;1.50;;;20.60;92.10;;;;;;5075609;28;20119;-77
2023/10/23 13:02:59;;;;;;;5.90;1.25;;;20.60;90.90;;;;;;5075482;28;20016;-77
2023/10/23 13:05:25;;;;;;;6.78;1.20;;;20.60;90.80;;;;;;5075237;28;20039;-78
2023/10/23 13:07:51;;;;;;;7.28;1.40;;;20.70;91.00;;;;;;5075475;28;20027;-79